createdAt,value
2019-01-03T00:00:04.943Z,-1
2019-01-03T00:01:07.346Z,-1.1
2019-01-03T00:02:10.053Z,-1.2
2019-01-03T00:03:12.181Z,-1.2
2019-01-03T00:04:14.320Z,-1.2
2019-01-03T00:05:16.424Z,-1.2
2019-01-03T00:06:18.594Z,-1.2
2019-01-03T00:07:20.729Z,-1.2
2019-01-03T00:08:22.839Z,-1.2
2019-01-03T00:09:25.077Z,-1.3
2019-01-03T00:10:27.650Z,-1.3
2019-01-03T00:11:29.791Z,-1.3
2019-01-03T00:12:31.930Z,-1.3
2019-01-03T00:13:34.046Z,-1.4
2019-01-03T00:14:36.176Z,-1.3
2019-01-03T00:15:38.313Z,-1.3
2019-01-03T00:16:40.470Z,-1.4
2019-01-03T00:17:42.889Z,-1.4
2019-01-03T00:18:45.038Z,-1.4
2019-01-03T00:19:47.189Z,-1.4
2019-01-03T00:20:49.364Z,-1.5
2019-01-03T00:21:51.793Z,-1.5
2019-01-03T00:22:53.958Z,-1.5
2019-01-03T00:23:56.096Z,-1.5
2019-01-03T00:24:58.216Z,-1.4
2019-01-03T00:26:00.347Z,-1.4
2019-01-03T00:27:02.485Z,-1.3
2019-01-03T00:28:04.866Z,-1.2
2019-01-03T00:29:07.083Z,-1.3
2019-01-03T00:30:09.239Z,-1.2
2019-01-03T00:31:11.346Z,-1.2
2019-01-03T00:32:13.466Z,-1.2
2019-01-03T00:33:15.851Z,-1.2
2019-01-03T00:34:17.982Z,-1.2
2019-01-03T00:35:20.152Z,-1.3
2019-01-03T00:36:22.270Z,-1.2
2019-01-03T00:37:24.418Z,-1.3
2019-01-03T00:38:26.543Z,-1.3
2019-01-03T00:39:29.070Z,-1.2
2019-01-03T00:40:31.176Z,-1.2
2019-01-03T00:41:33.302Z,-1.1
2019-01-03T00:42:35.413Z,-1.1
2019-01-03T00:43:37.529Z,-1.2
2019-01-03T00:44:39.946Z,-1.2
2019-01-03T00:45:42.083Z,-1.2
2019-01-03T00:46:44.227Z,-1.3
2019-01-03T00:47:46.359Z,-1.2
2019-01-03T00:48:48.492Z,-1.2
2019-01-03T00:49:50.634Z,-1.2
2019-01-03T00:50:53.049Z,-1.3
2019-01-03T00:51:55.477Z,-1.3
2019-01-03T00:52:57.597Z,-1.3
2019-01-03T00:54:00.000Z,-1.3
2019-01-03T00:55:02.447Z,-1.3
2019-01-03T00:56:04.576Z,-1.4
2019-01-03T00:57:06.710Z,-1.4
2019-01-03T00:58:08.837Z,-1.4
2019-01-03T00:59:10.961Z,-1.4
2019-01-03T01:00:13.088Z,-1.4
2019-01-03T01:01:15.213Z,-1.4
2019-01-03T01:02:17.347Z,-1.4
2019-01-03T01:03:19.471Z,-1.4
2019-01-03T01:04:21.592Z,-1.4
2019-01-03T01:05:23.979Z,-1.4
2019-01-03T01:06:26.109Z,-1.3
2019-01-03T01:07:28.248Z,-1.3
2019-01-03T01:08:30.376Z,-1.3
2019-01-03T01:09:32.882Z,-1.3
2019-01-03T01:10:35.005Z,-1.3
2019-01-03T01:11:37.135Z,-1.4
2019-01-03T01:12:39.269Z,-1.5
2019-01-03T01:13:41.407Z,-1.5
2019-01-03T01:14:43.535Z,-1.6
2019-01-03T01:15:46.046Z,-1.6
2019-01-03T01:16:48.233Z,-1.5
2019-01-03T01:17:50.348Z,-1.5
2019-01-03T01:18:52.483Z,-1.5
2019-01-03T01:19:54.610Z,-1.5
2019-01-03T01:20:56.795Z,-1.6
2019-01-03T01:21:59.238Z,-1.6
2019-01-03T01:23:01.362Z,-1.6
2019-01-03T01:24:03.804Z,-1.6
2019-01-03T01:25:05.939Z,-1.7
2019-01-03T01:26:08.074Z,-1.7
2019-01-03T01:27:10.178Z,-1.7
2019-01-03T01:28:12.615Z,-1.7
2019-01-03T01:29:14.745Z,-1.7
2019-01-03T01:30:17.152Z,-1.7
2019-01-03T01:31:19.256Z,-1.7
2019-01-03T01:32:21.668Z,-1.6
2019-01-03T01:33:23.771Z,-1.8
2019-01-03T01:34:25.880Z,-1.8
2019-01-03T01:35:28.041Z,-1.7
2019-01-03T01:36:30.175Z,-1.6
2019-01-03T01:37:32.316Z,-1.7
2019-01-03T01:38:34.451Z,-1.7
2019-01-03T01:39:36.592Z,-1.7
2019-01-03T01:40:38.727Z,-1.7
2019-01-03T01:41:40.861Z,-1.8
2019-01-03T01:42:42.985Z,-1.8
2019-01-03T01:43:45.509Z,-1.8
2019-01-03T01:44:47.606Z,-1.9
2019-01-03T01:45:49.716Z,-1.9
2019-01-03T01:46:51.872Z,-1.9
2019-01-03T01:47:54.412Z,-1.9
2019-01-03T01:48:56.556Z,-2
2019-01-03T01:49:58.706Z,-2
2019-01-03T01:51:00.843Z,-2
2019-01-03T01:52:03.351Z,-2
2019-01-03T01:53:05.483Z,-2
2019-01-03T01:54:07.593Z,-2
2019-01-03T01:55:09.720Z,-2
2019-01-03T01:56:11.867Z,-2
2019-01-03T01:57:14.039Z,-1.8
2019-01-03T01:58:16.160Z,-1.9
2019-01-03T01:59:18.281Z,-1.9
2019-01-03T02:00:20.676Z,-1.9
2019-01-03T02:01:22.844Z,-1.8
2019-01-03T02:02:25.293Z,-1.8
2019-01-03T02:03:27.412Z,-1.7
2019-01-03T02:04:29.544Z,-1.7
2019-01-03T02:05:31.674Z,-1.7
2019-01-03T02:06:33.833Z,-1.7
2019-01-03T02:07:35.978Z,-1.7
2019-01-03T02:08:38.089Z,-1.7
2019-01-03T02:09:40.218Z,-1.7
2019-01-03T02:10:42.352Z,-1.6
2019-01-03T02:11:44.479Z,-1.6
2019-01-03T02:12:46.616Z,-1.6
2019-01-03T02:13:48.734Z,-1.6
2019-01-03T02:14:50.885Z,-1.6
2019-01-03T02:15:53.033Z,-1.6
2019-01-03T02:16:55.146Z,-1.6
2019-01-03T02:17:57.260Z,-1.6
2019-01-03T02:18:59.407Z,-1.6
2019-01-03T02:20:01.805Z,-1.7
2019-01-03T02:21:04.240Z,-1.7
2019-01-03T02:22:06.369Z,-1.7
2019-01-03T02:23:08.516Z,-1.7
2019-01-03T02:24:10.645Z,-1.8
2019-01-03T02:25:12.764Z,-1.8
2019-01-03T02:26:14.887Z,-1.9
2019-01-03T02:27:17.031Z,-2
2019-01-03T02:28:19.163Z,-2
2019-01-03T02:29:21.298Z,-2.1
2019-01-03T02:30:23.467Z,-2.1
2019-01-03T02:31:25.879Z,-2
2019-01-03T02:32:28.005Z,-2.1
2019-01-03T02:33:30.390Z,-2.1
2019-01-03T02:34:32.524Z,-2.2
2019-01-03T02:35:34.647Z,-2.1
2019-01-03T02:36:37.081Z,-2.1
2019-01-03T02:37:39.546Z,-2.1
2019-01-03T02:38:41.671Z,-2.2
2019-01-03T02:39:43.804Z,-2.1
2019-01-03T02:40:45.943Z,-2.2
2019-01-03T02:41:48.400Z,-2.1
2019-01-03T02:42:50.541Z,-2.2
2019-01-03T02:43:52.668Z,-2.2
2019-01-03T02:44:54.807Z,-2.2
2019-01-03T02:45:57.251Z,-2.2
2019-01-03T02:46:59.409Z,-2.2
2019-01-03T02:48:01.549Z,-2.2
2019-01-03T02:49:04.351Z,-2.2
2019-01-03T02:50:06.493Z,-2.2
2019-01-03T02:51:08.929Z,-2.1
2019-01-03T02:52:11.064Z,-2.2
2019-01-03T02:53:13.174Z,-2.1
2019-01-03T02:54:15.689Z,-2.1
2019-01-03T02:55:17.805Z,-2.1
2019-01-03T02:56:19.949Z,-2.3
2019-01-03T02:57:22.084Z,-2.2
2019-01-03T02:58:24.904Z,-2.2
2019-01-03T02:59:27.055Z,-2.2
2019-01-03T03:00:29.221Z,-2.3
2019-01-03T03:01:31.744Z,-2.3
2019-01-03T03:02:34.193Z,-2.4
2019-01-03T03:03:36.328Z,-2.5
2019-01-03T03:04:38.444Z,-2.4
2019-01-03T03:05:40.565Z,-2.4
2019-01-03T03:06:42.697Z,-2.4
2019-01-03T03:07:45.503Z,-2.4
2019-01-03T03:08:47.650Z,-2.4
2019-01-03T03:09:49.778Z,-2.5
2019-01-03T03:10:51.878Z,-2.4
2019-01-03T03:11:54.296Z,-2.4
2019-01-03T03:12:56.427Z,-2.5
2019-01-03T03:13:58.849Z,-2.5
2019-01-03T03:15:01.046Z,-2.5
2019-01-03T03:16:03.209Z,-2.5
2019-01-03T03:17:05.355Z,-2.5
2019-01-03T03:18:07.492Z,-2.6
2019-01-03T03:19:09.632Z,-2.6
2019-01-03T03:20:11.751Z,-2.6
2019-01-03T03:21:13.905Z,-2.6
2019-01-03T03:22:16.040Z,-2.6
2019-01-03T03:23:18.176Z,-2.6
2019-01-03T03:24:20.308Z,-2.7
2019-01-03T03:25:22.765Z,-2.7
2019-01-03T03:26:24.895Z,-2.7
2019-01-03T03:27:27.041Z,-2.7
2019-01-03T03:28:29.179Z,-2.6
2019-01-03T03:29:31.290Z,-2.7
2019-01-03T03:30:33.454Z,-2.7
2019-01-03T03:31:36.421Z,-2.6
2019-01-03T03:32:39.297Z,-2.6
2019-01-03T03:33:41.437Z,-2.6
2019-01-03T03:34:44.344Z,-2.6
2019-01-03T03:35:46.779Z,-2.6
2019-01-03T03:36:48.914Z,-2.6
2019-01-03T03:37:51.048Z,-2.6
2019-01-03T03:38:53.174Z,-2.6
2019-01-03T03:39:55.288Z,-2.6
2019-01-03T03:40:57.707Z,-2.6
2019-01-03T03:41:59.827Z,-2.7
2019-01-03T03:43:02.245Z,-2.7
2019-01-03T03:44:04.714Z,-2.7
2019-01-03T03:45:06.878Z,-2.7
2019-01-03T03:46:09.430Z,-2.7
2019-01-03T03:47:11.574Z,-2.8
2019-01-03T03:48:14.122Z,-2.8
2019-01-03T03:49:16.253Z,-2.8
2019-01-03T03:50:18.681Z,-2.8
2019-01-03T03:51:20.823Z,-2.8
2019-01-03T03:52:22.932Z,-2.8
2019-01-03T03:53:25.064Z,-2.8
2019-01-03T03:54:27.206Z,-2.8
2019-01-03T03:55:29.633Z,-2.8
2019-01-03T03:56:31.778Z,-2.8
2019-01-03T03:57:33.898Z,-2.8
2019-01-03T03:58:36.050Z,-2.8
2019-01-03T03:59:38.186Z,-2.8
2019-01-03T04:00:40.342Z,-2.8
2019-01-03T04:01:42.488Z,-2.8
2019-01-03T04:02:44.641Z,-2.8
2019-01-03T04:03:46.763Z,-2.7
2019-01-03T04:04:48.898Z,-2.7
2019-01-03T04:05:51.036Z,-2.7
2019-01-03T04:06:53.423Z,-2.7
2019-01-03T04:07:55.828Z,-2.4
2019-01-03T04:08:57.964Z,-2.4
2019-01-03T04:10:00.183Z,-2.4
2019-01-03T04:11:02.714Z,-2.4
2019-01-03T04:12:04.877Z,-2.5
2019-01-03T04:13:07.024Z,-2.5
2019-01-03T04:14:09.450Z,-2.6
2019-01-03T04:15:11.566Z,-2.6
2019-01-03T04:16:13.751Z,-2.6
2019-01-03T04:17:16.288Z,-2.5
2019-01-03T04:18:18.414Z,-2.6
2019-01-03T04:19:20.800Z,-2.6
2019-01-03T04:20:23.189Z,-2.7
2019-01-03T04:21:25.336Z,-2.7
2019-01-03T04:22:27.867Z,-2.7
2019-01-03T04:23:30.003Z,-2.7
2019-01-03T04:24:32.128Z,-2.8
2019-01-03T04:25:34.251Z,-2.8
2019-01-03T04:26:36.382Z,-2.8
2019-01-03T04:27:38.800Z,-2.8
2019-01-03T04:28:41.210Z,-2.8
2019-01-03T04:29:43.630Z,-2.8
2019-01-03T04:30:46.437Z,-2.6
2019-01-03T04:31:48.559Z,-2.7
2019-01-03T04:32:50.702Z,-2.7
2019-01-03T04:33:53.142Z,-2.7
2019-01-03T04:34:55.286Z,-2.7
2019-01-03T04:35:57.441Z,-2.7
2019-01-03T04:37:00.215Z,-2.4
2019-01-03T04:38:02.362Z,-2.5
2019-01-03T04:39:04.870Z,-2.4
2019-01-03T04:40:07.036Z,-2.5
2019-01-03T04:41:09.210Z,-2.5
2019-01-03T04:42:11.361Z,-2.6
2019-01-03T04:43:13.502Z,-2.5
2019-01-03T04:44:16.205Z,-2.6
2019-01-03T04:45:18.326Z,-2.6
2019-01-03T04:46:20.458Z,-2.5
2019-01-03T04:47:22.633Z,-2.5
2019-01-03T04:48:24.752Z,-2.5
2019-01-03T04:49:26.928Z,-2.4
2019-01-03T04:50:29.081Z,-2.3
2019-01-03T04:51:31.235Z,-2.3
2019-01-03T04:52:33.354Z,-2.3
2019-01-03T04:53:35.882Z,-2.1
2019-01-03T04:54:39.009Z,-2.1
2019-01-03T04:55:41.131Z,-2.1
2019-01-03T04:56:43.262Z,-2.1
2019-01-03T04:57:45.387Z,-2
2019-01-03T04:58:47.821Z,-2.1
2019-01-03T04:59:49.996Z,-2.1
2019-01-03T05:00:52.528Z,-2
2019-01-03T05:01:54.681Z,-2
2019-01-03T05:02:56.815Z,-2
2019-01-03T05:03:58.950Z,-2
2019-01-03T05:05:01.111Z,-2
2019-01-03T05:06:03.551Z,-2
2019-01-03T05:07:05.682Z,-2
2019-01-03T05:08:08.119Z,-2
2019-01-03T05:09:10.261Z,-2
2019-01-03T05:10:12.374Z,-2.1
2019-01-03T05:11:14.538Z,-2
2019-01-03T05:12:16.938Z,-2.1
2019-01-03T05:13:19.087Z,-2
2019-01-03T05:14:21.222Z,-2.1
2019-01-03T05:15:23.667Z,-2.2
2019-01-03T05:16:25.793Z,-2.2
2019-01-03T05:17:27.999Z,-2.2
2019-01-03T05:18:30.131Z,-2.3
2019-01-03T05:19:33.990Z,-2.3
2019-01-03T05:20:36.482Z,-2.4
2019-01-03T05:21:38.625Z,-2.5
2019-01-03T05:22:41.033Z,-2.4
2019-01-03T05:23:43.154Z,-2.5
2019-01-03T05:24:45.304Z,-2.5
2019-01-03T05:25:47.435Z,-2.5
2019-01-03T05:26:49.606Z,-2.6
2019-01-03T05:27:51.723Z,-2.5
2019-01-03T05:28:53.859Z,-2.6
2019-01-03T05:29:56.004Z,-2.6
2019-01-03T05:30:58.139Z,-2.6
2019-01-03T05:32:00.263Z,-2.7
2019-01-03T05:33:02.409Z,-2.6
2019-01-03T05:34:04.538Z,-2.6
2019-01-03T05:35:06.704Z,-2.6
2019-01-03T05:36:09.223Z,-2.6
2019-01-03T05:37:11.385Z,-2.6
2019-01-03T05:38:13.531Z,-2.6
2019-01-03T05:39:16.007Z,-2.7
2019-01-03T05:40:18.119Z,-2.7
2019-01-03T05:41:20.541Z,-2.7
2019-01-03T05:42:22.695Z,-2.6
2019-01-03T05:43:25.091Z,-2.5
2019-01-03T05:44:27.516Z,-2.6
2019-01-03T05:45:29.693Z,-2.6
2019-01-03T05:46:31.841Z,-2.7
2019-01-03T05:47:34.263Z,-2.7
2019-01-03T05:48:36.687Z,-2.8
2019-01-03T05:49:38.837Z,-2.7
2019-01-03T05:50:40.961Z,-2.7
2019-01-03T05:51:43.094Z,-2.7
2019-01-03T05:52:45.218Z,-2.8
2019-01-03T05:53:47.721Z,-2.7
2019-01-03T05:54:49.849Z,-2.6
2019-01-03T05:55:52.013Z,-2.6
2019-01-03T05:56:54.149Z,-2.7
2019-01-03T05:57:56.290Z,-2.7
2019-01-03T05:58:58.710Z,-2.6
2019-01-03T06:00:00.921Z,-2.7
2019-01-03T06:01:03.353Z,-2.7
2019-01-03T06:02:05.558Z,-2.8
2019-01-03T06:03:07.974Z,-2.7
2019-01-03T06:04:10.103Z,-2.7
2019-01-03T06:05:12.228Z,-2.8
2019-01-03T06:06:14.637Z,-2.8
2019-01-03T06:07:16.766Z,-2.8
2019-01-03T06:08:18.877Z,-2.9
2019-01-03T06:09:20.990Z,-2.9
2019-01-03T06:10:23.126Z,-2.9
2019-01-03T06:11:25.917Z,-2.9
2019-01-03T06:12:28.049Z,-2.9
2019-01-03T06:13:30.489Z,-2.9
2019-01-03T06:14:32.939Z,-3
2019-01-03T06:15:35.374Z,-3
2019-01-03T06:16:37.510Z,-3
2019-01-03T06:17:39.929Z,-2.9
2019-01-03T06:18:42.053Z,-3
2019-01-03T06:19:44.479Z,-2.9
2019-01-03T06:20:46.610Z,-2.9
2019-01-03T06:21:49.042Z,-2.9
2019-01-03T06:22:51.170Z,-3
2019-01-03T06:23:53.313Z,-2.9
2019-01-03T06:24:55.437Z,-2.9
2019-01-03T06:25:58.336Z,-2.9
2019-01-03T06:27:00.471Z,-2.9
2019-01-03T06:28:02.614Z,-2.8
2019-01-03T06:29:04.739Z,-2.9
2019-01-03T06:30:06.886Z,-2.8
2019-01-03T06:31:09.007Z,-2.8
2019-01-03T06:32:11.140Z,-2.8
2019-01-03T06:33:13.543Z,-2.8
2019-01-03T06:34:15.678Z,-2.9
2019-01-03T06:35:17.833Z,-2.9
2019-01-03T06:36:20.552Z,-2.8
2019-01-03T06:37:22.708Z,-2.9
2019-01-03T06:38:24.897Z,-3
2019-01-03T06:39:27.095Z,-3.1
2019-01-03T06:40:29.255Z,-3.1
2019-01-03T06:41:31.789Z,-3
2019-01-03T06:42:33.908Z,-3.1
2019-01-03T06:43:36.101Z,-3.2
2019-01-03T06:44:38.222Z,-3.1
2019-01-03T06:45:40.357Z,-2.8
2019-01-03T06:46:42.494Z,-2.9
2019-01-03T06:47:44.630Z,-3
2019-01-03T06:48:46.741Z,-3.1
2019-01-03T06:49:48.876Z,-3.1
2019-01-03T06:50:51.011Z,-3.1
2019-01-03T06:51:53.120Z,-3
2019-01-03T06:52:55.246Z,-3.2
2019-01-03T06:53:57.656Z,-3
2019-01-03T06:55:00.088Z,-3
2019-01-03T06:56:02.240Z,-3
2019-01-03T06:57:04.390Z,-3
2019-01-03T06:58:06.539Z,-3
2019-01-03T06:59:08.680Z,-3.1
2019-01-03T07:00:10.811Z,-3.1
2019-01-03T07:01:13.218Z,-3
2019-01-03T07:02:15.368Z,-2.9
2019-01-03T07:03:17.500Z,-3
2019-01-03T07:04:19.644Z,-3
2019-01-03T07:05:21.771Z,-3
2019-01-03T07:06:23.895Z,-3
2019-01-03T07:07:26.021Z,-3
2019-01-03T07:08:28.184Z,-3
2019-01-03T07:09:30.325Z,-2.9
2019-01-03T07:10:32.459Z,-2.8
2019-01-03T07:11:34.579Z,-2.8
2019-01-03T07:12:36.699Z,-2.8
2019-01-03T07:13:38.796Z,-2.7
2019-01-03T07:14:40.929Z,-2.7
2019-01-03T07:15:43.035Z,-2.6
2019-01-03T07:16:45.162Z,-2.7
2019-01-03T07:17:47.303Z,-2.7
2019-01-03T07:18:49.425Z,-2.8
2019-01-03T07:19:51.560Z,-2.8
2019-01-03T07:20:53.692Z,-2.8
2019-01-03T07:21:56.085Z,-2.8
2019-01-03T07:22:58.187Z,-2.9
2019-01-03T07:24:00.324Z,-2.9
2019-01-03T07:25:02.443Z,-2.9
2019-01-03T07:26:04.564Z,-2.9
2019-01-03T07:27:06.674Z,-2.8
2019-01-03T07:28:08.781Z,-2.8
2019-01-03T07:29:10.904Z,-2.7
2019-01-03T07:30:13.055Z,-2.7
2019-01-03T07:31:15.157Z,-2.5
2019-01-03T07:32:17.595Z,-2.6
2019-01-03T07:33:19.712Z,-2.4
2019-01-03T07:34:22.144Z,-2.4
2019-01-03T07:35:24.290Z,-2.4
2019-01-03T07:36:26.424Z,-2.5
2019-01-03T07:37:28.567Z,-2.4
2019-01-03T07:38:30.722Z,-2.4
2019-01-03T07:39:32.859Z,-2.4
2019-01-03T07:40:34.981Z,-2.5
2019-01-03T07:41:37.116Z,-2.5
2019-01-03T07:42:39.270Z,-2.6
2019-01-03T07:43:41.401Z,-2.6
2019-01-03T07:44:43.809Z,-2.7
2019-01-03T07:45:45.924Z,-2.6
2019-01-03T07:46:48.048Z,-2.6
2019-01-03T07:47:50.156Z,-2.7
2019-01-03T07:48:52.290Z,-2.7
2019-01-03T07:49:54.426Z,-2.7
2019-01-03T07:50:56.536Z,-2.7
2019-01-03T07:51:58.656Z,-2.8
2019-01-03T07:53:00.775Z,-2.8
2019-01-03T07:54:02.904Z,-2.8
2019-01-03T07:55:05.043Z,-2.8
2019-01-03T07:56:07.282Z,-2.8
2019-01-03T07:57:09.394Z,-2.8
2019-01-03T07:58:11.493Z,-2.8
2019-01-03T07:59:13.901Z,-2.8
2019-01-03T08:00:16.032Z,-2.8
2019-01-03T08:01:18.414Z,-2.9
2019-01-03T08:02:20.534Z,-2.9
2019-01-03T08:03:22.672Z,-2.9
2019-01-03T08:04:24.797Z,-2.9
2019-01-03T08:05:26.938Z,-2.9
2019-01-03T08:06:29.111Z,-2.9
2019-01-03T08:07:31.251Z,-3
2019-01-03T08:08:33.387Z,-2.9
2019-01-03T08:09:35.521Z,-3
2019-01-03T08:10:37.645Z,-3
2019-01-03T08:11:39.762Z,-3
2019-01-03T08:12:41.883Z,-3
2019-01-03T08:13:46.700Z,-2.9
2019-01-03T08:14:48.897Z,-2.9
2019-01-03T08:15:51.029Z,-2.9
2019-01-03T08:16:53.159Z,-2.8
2019-01-03T08:17:55.524Z,-2.8
2019-01-03T08:18:57.652Z,-2.8
2019-01-03T08:19:59.767Z,-2.7
2019-01-03T08:21:01.950Z,-2.6
2019-01-03T08:22:04.464Z,-2.5
2019-01-03T08:23:06.601Z,-2.5
2019-01-03T08:24:08.716Z,-2.5
2019-01-03T08:25:10.907Z,-2.5
2019-01-03T08:26:13.049Z,-2.4
2019-01-03T08:27:15.174Z,-2.4
2019-01-03T08:28:17.313Z,-2.4
2019-01-03T08:29:19.436Z,-2.3
2019-01-03T08:30:21.843Z,-2.5
2019-01-03T08:31:23.975Z,-2.5
2019-01-03T08:32:26.114Z,-2.6
2019-01-03T08:33:28.278Z,-2.6
2019-01-03T08:34:30.408Z,-2.6
2019-01-03T08:35:32.936Z,-2.5
2019-01-03T08:36:35.086Z,-2.5
2019-01-03T08:37:37.602Z,-2.5
2019-01-03T08:38:39.713Z,-2.4
2019-01-03T08:39:47.544Z,-2.4
2019-01-03T08:41:22.527Z,-2.3
2019-01-03T08:42:31.489Z,-2.4
2019-01-03T08:43:43.388Z,-2.5
2019-01-03T08:44:49.033Z,-2.4
2019-01-03T08:45:57.924Z,-2.3
2019-01-03T08:47:11.521Z,-2.3
2019-01-03T08:48:14.328Z,-2.2
2019-01-03T08:49:16.462Z,-2.3
2019-01-03T08:50:18.601Z,-2.2
2019-01-03T08:51:20.734Z,-2.3
2019-01-03T08:52:23.253Z,-2.2
2019-01-03T08:53:32.689Z,-2.2
2019-01-03T08:54:40.843Z,-2.2
2019-01-03T08:55:51.978Z,-2.2
2019-01-03T08:56:57.901Z,-2.1
2019-01-03T08:58:12.298Z,-2
2019-01-03T08:59:33.110Z,-2
2019-01-03T09:00:36.532Z,-2
2019-01-03T09:01:38.679Z,-2
2019-01-03T09:02:40.810Z,-2
2019-01-03T09:03:42.969Z,-2
2019-01-03T09:04:45.095Z,-1.9
2019-01-03T09:05:47.224Z,-2
2019-01-03T09:06:50.100Z,-1.9
2019-01-03T09:07:52.530Z,-1.9
2019-01-03T09:08:54.676Z,-2
2019-01-03T09:09:56.790Z,-2
2019-01-03T09:10:59.229Z,-2
2019-01-03T09:12:01.380Z,-1.9
2019-01-03T09:13:03.549Z,-1.8
2019-01-03T09:14:05.717Z,-1.8
2019-01-03T09:15:08.160Z,-1.7
2019-01-03T09:16:10.307Z,-1.6
2019-01-03T09:17:12.738Z,-1.4
2019-01-03T09:18:15.702Z,-1.3
2019-01-03T09:19:18.157Z,-1.1
2019-01-03T09:20:20.599Z,-1
2019-01-03T09:21:23.026Z,-0.8
2019-01-03T09:22:25.181Z,-0.7
2019-01-03T09:23:27.328Z,-0.4
2019-01-03T09:24:29.472Z,-0.1
2019-01-03T09:25:31.685Z,0.1
2019-01-03T09:26:34.119Z,0.3
2019-01-03T09:27:36.248Z,0.4
2019-01-03T09:28:38.396Z,0.5
2019-01-03T09:29:40.515Z,0.6
2019-01-03T09:30:42.631Z,0.6
2019-01-03T09:31:45.065Z,0.5
2019-01-03T09:32:47.509Z,0.6
2019-01-03T09:33:49.684Z,0.5
2019-01-03T09:34:51.832Z,0.5
2019-01-03T09:35:53.965Z,0.4
2019-01-03T09:36:56.107Z,0.6
2019-01-03T09:37:58.248Z,0.7
2019-01-03T09:39:00.672Z,0.8
2019-01-03T09:40:02.834Z,0.9
2019-01-03T09:41:05.265Z,1.1
2019-01-03T09:42:07.418Z,1.2
2019-01-03T09:43:09.594Z,1.3
2019-01-03T09:44:11.743Z,1.6
2019-01-03T09:45:14.268Z,1.7
2019-01-03T09:46:16.412Z,1.8
2019-01-03T09:47:18.865Z,1.8
2019-01-03T09:48:20.980Z,1.9
2019-01-03T09:49:23.422Z,1.9
2019-01-03T09:50:25.587Z,1.8
2019-01-03T09:51:29.012Z,2
2019-01-03T09:52:31.202Z,2
2019-01-03T09:53:33.344Z,2
2019-01-03T09:54:35.889Z,2.2
2019-01-03T09:55:38.038Z,2.2
2019-01-03T09:56:40.196Z,2.5
2019-01-03T09:57:42.342Z,2.6
2019-01-03T09:58:44.481Z,2.7
2019-01-03T09:59:46.902Z,2.5
2019-01-03T10:00:49.035Z,2.5
2019-01-03T10:01:51.493Z,2.7
2019-01-03T10:02:53.668Z,2.9
2019-01-03T10:03:55.821Z,3.3
2019-01-03T10:04:57.985Z,3.6
2019-01-03T10:06:00.151Z,3.6
2019-01-03T10:07:02.305Z,3.3
2019-01-03T10:08:04.833Z,3.3
2019-01-03T10:09:06.980Z,2.9
2019-01-03T10:10:09.127Z,3.2
2019-01-03T10:11:11.264Z,3.5
2019-01-03T10:12:13.734Z,3.5
2019-01-03T10:13:15.899Z,3.2
2019-01-03T10:14:18.068Z,3.4
2019-01-03T10:15:20.199Z,2.9
2019-01-03T10:16:22.342Z,3.6
2019-01-03T10:17:24.766Z,3.9
2019-01-03T10:18:26.924Z,3.9
2019-01-03T10:19:29.634Z,3.8
2019-01-03T10:20:31.762Z,3.8
2019-01-03T10:21:33.961Z,3.9
2019-01-03T10:22:36.136Z,3.9
2019-01-03T10:23:38.273Z,4
2019-01-03T10:24:40.845Z,3.5
2019-01-03T10:25:43.022Z,3.7
2019-01-03T10:26:45.556Z,3.8
2019-01-03T10:27:48.485Z,4
2019-01-03T10:28:50.638Z,4.3
2019-01-03T10:29:52.799Z,4.2
2019-01-03T10:30:54.965Z,4.7
2019-01-03T10:31:57.135Z,4.4
2019-01-03T10:32:59.412Z,4.2
2019-01-03T10:34:01.532Z,4.3
2019-01-03T10:35:03.668Z,4.4
2019-01-03T10:36:05.822Z,4
2019-01-03T10:37:08.240Z,4
2019-01-03T10:38:10.389Z,4.1
2019-01-03T10:39:12.563Z,4.4
2019-01-03T10:40:14.731Z,4.3
2019-01-03T10:41:18.090Z,4.3
2019-01-03T10:42:20.370Z,4.6
2019-01-03T10:43:22.546Z,4.8
2019-01-03T10:44:24.782Z,4.3
2019-01-03T10:45:26.949Z,4.6
2019-01-03T10:46:29.361Z,4.8
2019-01-03T10:47:31.520Z,4.8
2019-01-03T10:48:33.677Z,4.6
2019-01-03T10:49:35.835Z,5
2019-01-03T10:50:38.024Z,4.7
2019-01-03T10:51:40.233Z,4.7
2019-01-03T10:52:42.391Z,5
2019-01-03T10:53:44.549Z,4.7
2019-01-03T10:54:46.703Z,4.7
2019-01-03T10:55:48.874Z,4.9
2019-01-03T10:56:51.047Z,5
2019-01-03T10:57:53.194Z,4.8
2019-01-03T10:58:55.338Z,4.9
2019-01-03T10:59:57.485Z,5.3
2019-01-03T11:00:59.766Z,5.2
2019-01-03T11:02:01.968Z,5
2019-01-03T11:03:04.415Z,4.9
2019-01-03T11:04:06.781Z,4.9
2019-01-03T11:05:08.923Z,4.6
2019-01-03T11:06:11.059Z,5
2019-01-03T11:07:13.208Z,4.9
2019-01-03T11:08:15.354Z,5.1
2019-01-03T11:09:17.775Z,4.7
2019-01-03T11:10:19.952Z,4.4
2019-01-03T11:11:22.172Z,4.8
2019-01-03T11:12:24.291Z,4.3
2019-01-03T11:13:26.487Z,4.1
2019-01-03T11:14:28.614Z,4.1
2019-01-03T11:15:30.783Z,4.1
2019-01-03T11:16:32.952Z,4.5
2019-01-03T11:17:35.106Z,4.6
2019-01-03T11:18:37.288Z,4.8
2019-01-03T11:19:39.778Z,5
2019-01-03T11:20:41.964Z,4.7
2019-01-03T11:21:44.129Z,5.1
2019-01-03T11:22:46.295Z,4.9
2019-01-03T11:23:48.431Z,5.2
2019-01-03T11:24:50.927Z,5.4
2019-01-03T11:25:53.102Z,5.1
2019-01-03T11:26:55.233Z,5.2
2019-01-03T11:27:57.499Z,5
2019-01-03T11:28:59.683Z,4.9
2019-01-03T11:30:02.253Z,5.1
2019-01-03T11:31:04.420Z,5.1
2019-01-03T11:32:06.598Z,5.1
2019-01-03T11:33:08.734Z,5.4
2019-01-03T11:34:10.906Z,5.5
2019-01-03T11:35:13.076Z,5.2
2019-01-03T11:36:15.313Z,5.5
2019-01-03T11:37:17.498Z,5.3
2019-01-03T11:38:20.157Z,5.6
2019-01-03T11:39:23.196Z,5.7
2019-01-03T11:40:25.399Z,5.6
2019-01-03T11:41:27.690Z,5.7
2019-01-03T11:42:29.868Z,5.8
2019-01-03T11:43:32.697Z,6.1
2019-01-03T11:44:35.636Z,6.5
2019-01-03T11:45:38.175Z,6
2019-01-03T11:46:40.766Z,6.1
2019-01-03T11:47:43.784Z,5.9
2019-01-03T11:48:46.457Z,6
2019-01-03T11:49:49.185Z,6.2
2019-01-03T11:50:52.490Z,6.4
2019-01-03T11:51:54.905Z,6.3
2019-01-03T11:52:57.822Z,6.2
2019-01-03T11:54:00.660Z,6
2019-01-03T11:55:03.862Z,6
2019-01-03T11:56:06.280Z,6.1
2019-01-03T11:57:09.672Z,6.1
2019-01-03T11:58:13.473Z,6.2
2019-01-03T11:59:16.148Z,6.3
2019-01-03T12:00:19.964Z,6.5
2019-01-03T12:01:24.575Z,5.7
2019-01-03T12:02:28.263Z,5.7
2019-01-03T12:03:30.557Z,5.8
2019-01-03T12:04:32.862Z,5.9
2019-01-03T12:05:35.049Z,6
2019-01-03T12:06:37.247Z,6.1
2019-01-03T12:07:39.561Z,6
2019-01-03T12:08:41.808Z,5.6
2019-01-03T12:09:44.662Z,5.7
2019-01-03T12:10:46.878Z,5.6
2019-01-03T12:11:49.106Z,5.8
2019-01-03T12:12:51.559Z,5.3
2019-01-03T12:13:55.129Z,5.5
2019-01-03T12:14:57.287Z,5.4
2019-01-03T12:15:59.539Z,5.2
2019-01-03T12:17:01.722Z,5.3
2019-01-03T12:18:03.897Z,4.8
2019-01-03T12:19:06.318Z,5.2
2019-01-03T12:20:09.505Z,4.9
2019-01-03T12:21:11.681Z,5
2019-01-03T12:22:13.843Z,4.8
2019-01-03T12:23:16.002Z,4.8
2019-01-03T12:24:18.187Z,4.9
2019-01-03T12:25:20.389Z,4.5
2019-01-03T12:26:22.564Z,4.5
2019-01-03T12:27:24.802Z,4.6
2019-01-03T12:28:26.962Z,4.8
2019-01-03T12:29:29.187Z,4.8
2019-01-03T12:30:31.634Z,4.4
2019-01-03T12:31:34.132Z,4.3
2019-01-03T12:32:36.309Z,4.2
2019-01-03T12:33:38.936Z,4.3
2019-01-03T12:34:41.121Z,4.5
2019-01-03T12:35:43.276Z,4.1
2019-01-03T12:36:45.488Z,4.1
2019-01-03T12:37:48.034Z,4.2
2019-01-03T12:38:50.758Z,4.1
2019-01-03T12:39:53.210Z,4
2019-01-03T12:40:55.358Z,4
2019-01-03T12:41:57.566Z,4.1
2019-01-03T12:42:59.704Z,4.2
2019-01-03T12:44:02.131Z,4
2019-01-03T12:45:04.308Z,4.2
2019-01-03T12:46:06.464Z,4
2019-01-03T12:47:08.613Z,4
2019-01-03T12:48:10.780Z,3.9
2019-01-03T12:49:12.907Z,3.8
2019-01-03T12:50:15.052Z,3.8
2019-01-03T12:51:17.260Z,3.9
2019-01-03T12:52:19.419Z,3.9
2019-01-03T12:53:21.602Z,3.8
2019-01-03T12:54:23.765Z,3.8
2019-01-03T12:55:25.907Z,3.9
2019-01-03T12:56:28.345Z,3.9
2019-01-03T12:57:30.505Z,4
2019-01-03T12:58:32.649Z,3.8
2019-01-03T12:59:34.808Z,3.8
2019-01-03T13:00:36.983Z,3.7
2019-01-03T13:01:39.134Z,3.6
2019-01-03T13:02:41.309Z,3.6
2019-01-03T13:03:44.144Z,3.6
2019-01-03T13:04:46.695Z,3.5
2019-01-03T13:05:48.835Z,3.7
2019-01-03T13:06:51.351Z,3.7
2019-01-03T13:07:53.532Z,3.5
2019-01-03T13:08:55.951Z,3.6
2019-01-03T13:09:58.071Z,3.5
2019-01-03T13:11:00.236Z,3.6
2019-01-03T13:12:02.406Z,3.5
2019-01-03T13:13:04.553Z,3.6
2019-01-03T13:14:06.689Z,3.6
2019-01-03T13:15:09.127Z,3.5
2019-01-03T13:16:11.262Z,3.6
2019-01-03T13:17:13.440Z,3.7
2019-01-03T13:18:15.590Z,3.5
2019-01-03T13:19:18.293Z,3.6
2019-01-03T13:20:20.430Z,3.6
2019-01-03T13:21:22.560Z,3.4
2019-01-03T13:22:24.709Z,3.4
2019-01-03T13:23:26.831Z,3.4
2019-01-03T13:24:29.019Z,3.4
2019-01-03T13:25:31.154Z,3.5
2019-01-03T13:26:33.300Z,3.4
2019-01-03T13:27:35.473Z,3.4
2019-01-03T13:28:37.629Z,3.5
2019-01-03T13:29:39.782Z,3.4
2019-01-03T13:30:41.930Z,3.3
2019-01-03T13:31:45.454Z,3.3
2019-01-03T13:32:47.597Z,3.3
2019-01-03T13:33:49.750Z,3.3
2019-01-03T13:34:52.185Z,3.3
2019-01-03T13:35:54.639Z,3.3
2019-01-03T13:36:56.779Z,3.3
2019-01-03T13:37:58.916Z,3.3
2019-01-03T13:39:01.330Z,3.3
2019-01-03T13:40:03.474Z,3.2
2019-01-03T13:41:05.906Z,3.2
2019-01-03T13:42:08.052Z,3.2
2019-01-03T13:43:10.258Z,3.2
2019-01-03T13:44:12.681Z,3.3
2019-01-03T13:45:15.125Z,3.3
2019-01-03T13:46:17.284Z,3.2
2019-01-03T13:47:19.435Z,3.2
2019-01-03T13:48:21.587Z,3.2
2019-01-03T13:49:23.725Z,3.2
2019-01-03T13:50:26.265Z,3.1
2019-01-03T13:51:28.407Z,3
2019-01-03T13:52:30.554Z,3
2019-01-03T13:53:32.696Z,3.1
2019-01-03T13:54:34.849Z,3.1
2019-01-03T13:55:37.001Z,3.1
2019-01-03T13:56:39.123Z,3.1
2019-01-03T13:57:41.272Z,3.1
2019-01-03T13:58:43.424Z,3.1
2019-01-03T13:59:45.568Z,3.1
2019-01-03T14:00:47.702Z,3.1
2019-01-03T14:01:49.851Z,3
2019-01-03T14:02:51.993Z,3
2019-01-03T14:03:54.133Z,3
2019-01-03T14:04:56.579Z,2.9
2019-01-03T14:05:58.710Z,3